createdAt,value
2019-05-21T00:00:33.775Z,99344.56
2019-05-21T00:01:38.550Z,99344.38
2019-05-21T00:02:42.735Z,99346.37
2019-05-21T00:03:47.698Z,99343.48
2019-05-21T00:04:51.878Z,99338.98
2019-05-21T00:05:56.682Z,99337.13
2019-05-21T00:07:00.906Z,99341.94
2019-05-21T00:08:05.662Z,99345.92
2019-05-21T00:09:09.847Z,99336.30
2019-05-21T00:10:14.596Z,99335.53
2019-05-21T00:11:18.769Z,99337.95
2019-05-21T00:12:23.568Z,99336.45
2019-05-21T00:13:27.752Z,99339.17
2019-05-21T00:14:32.710Z,99336.60
2019-05-21T00:15:36.890Z,99339.56
2019-05-21T00:16:41.690Z,99342.14
2019-05-21T00:17:45.933Z,99343.21
2019-05-21T00:18:50.712Z,99337.42
2019-05-21T00:19:54.951Z,99334.22
2019-05-21T00:20:59.677Z,99329.89
2019-05-21T00:22:04.823Z,99331.64
2019-05-21T00:23:09.559Z,99334.22
2019-05-21T00:24:13.738Z,99334.95
2019-05-21T00:25:18.651Z,99333.73
2019-05-21T00:26:22.915Z,99335.48
2019-05-21T00:27:27.721Z,99335.38
2019-05-21T00:28:38.806Z,99336.36
2019-05-21T00:30:19.641Z,99338.69
2019-05-21T00:32:00.830Z,99342.82
2019-05-21T00:33:41.645Z,99335.14
2019-05-21T00:35:24.212Z,99349.96
2019-05-21T00:37:06.840Z,99346.99
2019-05-21T00:38:47.529Z,99343.02
2019-05-21T00:40:29.549Z,99351.80
2019-05-21T00:42:02.129Z,99347.77
2019-05-21T00:43:06.930Z,99353.83
2019-05-21T00:44:11.414Z,99352.33
2019-05-21T00:45:15.687Z,99346.84
2019-05-21T00:46:20.421Z,99353.55
2019-05-21T00:47:24.600Z,99354.13
2019-05-21T00:48:29.335Z,99349.48
2019-05-21T00:49:33.578Z,99350.15
2019-05-21T00:50:38.421Z,99339.86
2019-05-21T00:51:42.571Z,99350.80
2019-05-21T00:52:47.413Z,99345.06
2019-05-21T00:53:51.589Z,99346.56
2019-05-21T00:54:56.438Z,99343.75
2019-05-21T00:56:00.746Z,99345.64
2019-05-21T00:57:05.541Z,99344.33
2019-05-21T00:58:09.717Z,99345.73
2019-05-21T00:59:14.498Z,99342.58
2019-05-21T01:00:18.676Z,99338.87
2019-05-21T01:01:23.593Z,99342.83
2019-05-21T01:02:27.774Z,99340.19
2019-05-21T01:03:32.515Z,99339.52
2019-05-21T01:04:37.728Z,99334.22
2019-05-21T01:05:42.482Z,99344.91
2019-05-21T01:06:46.725Z,99338.35
2019-05-21T01:07:51.453Z,99332.23
2019-05-21T01:08:55.717Z,99327.66
2019-05-21T01:10:00.464Z,99339.52
2019-05-21T01:11:04.636Z,99339.27
2019-05-21T01:12:09.416Z,99333.15
2019-05-21T01:13:13.646Z,99339.03
2019-05-21T01:14:18.447Z,99336.55
2019-05-21T01:15:22.999Z,99337.37
2019-05-21T01:16:27.821Z,99347.23
2019-05-21T01:17:32.167Z,99344.91
2019-05-21T01:18:36.956Z,99342.43
2019-05-21T01:19:41.161Z,99352.54
2019-05-21T01:20:45.972Z,99352.87
2019-05-21T01:21:50.150Z,99359.00
2019-05-21T01:22:54.917Z,99348.16
2019-05-21T01:23:59.100Z,99347.23
2019-05-21T01:25:06.354Z,99353.37
2019-05-21T01:26:10.602Z,99350.48
2019-05-21T01:27:15.387Z,99350.06
2019-05-21T01:28:19.563Z,99354.53
2019-05-21T01:29:24.293Z,99354.53
2019-05-21T01:30:28.514Z,99355.84
2019-05-21T01:31:33.314Z,99354.38
2019-05-21T01:32:37.568Z,99362.83
2019-05-21T01:33:42.296Z,99364.06
2019-05-21T01:34:46.641Z,99361.73
2019-05-21T01:35:51.411Z,99357.84
2019-05-21T01:36:55.749Z,99362.98
2019-05-21T01:38:00.582Z,99363.48
2019-05-21T01:39:06.007Z,99362.06
2019-05-21T01:40:10.801Z,99364.40
2019-05-21T01:41:15.205Z,99356.86
2019-05-21T01:42:19.929Z,99361.82
2019-05-21T01:43:24.106Z,99362.31
2019-05-21T01:44:28.922Z,99363.48
2019-05-21T01:45:33.159Z,99360.75
2019-05-21T01:46:37.892Z,99363.08
2019-05-21T01:47:42.132Z,99360.35
2019-05-21T01:48:46.893Z,99360.59
2019-05-21T01:49:51.071Z,99357.78
2019-05-21T01:50:55.831Z,99356.13
2019-05-21T01:52:00.224Z,99355.05
2019-05-21T01:53:05.140Z,99356.13
2019-05-21T01:54:09.314Z,99361.77
2019-05-21T01:55:14.115Z,99357.29
2019-05-21T01:56:18.293Z,99347.91
2019-05-21T01:57:23.238Z,99354.23
2019-05-21T01:58:27.424Z,99350.89
2019-05-21T01:59:33.353Z,99355.88
2019-05-21T02:00:37.602Z,99354.47
2019-05-21T02:01:42.378Z,99355.36
2019-05-21T02:02:46.703Z,99353.30
2019-05-21T02:03:51.615Z,99355.20
2019-05-21T02:04:55.997Z,99346.66
2019-05-21T02:06:00.777Z,99346.02
2019-05-21T02:07:05.022Z,99352.63
2019-05-21T02:08:09.754Z,99351.31
2019-05-21T02:09:13.941Z,99351.56
2019-05-21T02:10:18.673Z,99339.95
2019-05-21T02:11:22.886Z,99342.68
2019-05-21T02:12:28.045Z,99346.42
2019-05-21T02:13:32.309Z,99343.84
2019-05-21T02:14:37.061Z,99346.75
2019-05-21T02:15:41.610Z,99348.31
2019-05-21T02:16:46.361Z,99342.19
2019-05-21T02:17:50.533Z,99343.84
2019-05-21T02:18:55.355Z,99345.44
2019-05-21T02:19:59.559Z,99347.00
2019-05-21T02:21:04.906Z,99343.69
2019-05-21T02:22:09.084Z,99341.79
2019-05-21T02:23:13.949Z,99330.95
2019-05-21T02:24:18.174Z,99335.91
2019-05-21T02:25:23.046Z,99338.23
2019-05-21T02:26:27.186Z,99333.42
2019-05-21T02:27:31.920Z,99336.09
2019-05-21T02:28:36.096Z,99341.14
2019-05-21T02:29:40.839Z,99331.77
2019-05-21T02:30:45.380Z,99336.23
2019-05-21T02:31:50.126Z,99330.30
2019-05-21T02:32:54.361Z,99342.06
2019-05-21T02:33:59.160Z,99341.48
2019-05-21T02:35:05.106Z,99346.86
2019-05-21T02:36:09.953Z,99332.59
2019-05-21T02:37:14.130Z,99342.88
2019-05-21T02:38:19.104Z,99343.29
2019-05-21T02:39:23.366Z,99343.29
2019-05-21T02:40:28.104Z,99346.34
2019-05-21T02:41:32.451Z,99341.55
2019-05-21T02:42:37.253Z,99350.58
2019-05-21T02:43:41.495Z,99348.59
2019-05-21T02:44:46.284Z,99353.48
2019-05-21T02:45:50.432Z,99345.09
2019-05-21T02:46:55.376Z,99347.27
2019-05-21T02:47:59.478Z,99345.62
2019-05-21T02:49:04.340Z,99344.84
2019-05-21T02:50:08.985Z,99344.55
2019-05-21T02:51:13.734Z,99341.72
2019-05-21T02:52:17.912Z,99347.84
2019-05-21T02:53:22.738Z,99347.75
2019-05-21T02:54:40.334Z,99344.38
2019-05-21T02:55:33.695Z,99336.66
2019-05-21T02:56:38.042Z,99337.58
2019-05-21T02:57:42.911Z,99337.41
2019-05-21T02:58:47.082Z,99332.02
2019-05-21T02:59:52.951Z,99339.24
2019-05-21T03:00:58.851Z,99335.36
2019-05-21T03:02:07.724Z,99336.08
2019-05-21T03:03:13.504Z,99337.00
2019-05-21T03:04:18.232Z,99331.95
2019-05-21T03:05:22.418Z,99335.25
2019-05-21T03:06:27.396Z,99337.72
2019-05-21T03:07:32.620Z,99334.72
2019-05-21T03:08:37.400Z,99334.58
2019-05-21T03:09:41.649Z,99334.81
2019-05-21T03:10:46.412Z,99331.08
2019-05-21T03:11:50.561Z,99336.38
2019-05-21T03:12:56.292Z,99340.11
2019-05-21T03:14:00.499Z,99335.56
2019-05-21T03:15:06.587Z,99343.34
2019-05-21T03:16:10.895Z,99339.86
2019-05-21T03:17:15.697Z,99339.95
2019-05-21T03:18:19.892Z,99323.14
2019-05-21T03:19:24.926Z,99328.44
2019-05-21T03:20:29.161Z,99335.30
2019-05-21T03:21:33.895Z,99336.36
2019-05-21T03:22:38.063Z,99333.89
2019-05-21T03:23:42.860Z,99324.53
2019-05-21T03:24:47.046Z,99328.58
2019-05-21T03:25:51.773Z,99327.95
2019-05-21T03:26:56.017Z,99331.58
2019-05-21T03:28:00.753Z,99331.23
2019-05-21T03:29:05.070Z,99329.41
2019-05-21T03:30:09.870Z,99338.69
2019-05-21T03:31:14.132Z,99345.17
2019-05-21T03:32:18.930Z,99342.60
2019-05-21T03:33:23.316Z,99344.31
2019-05-21T03:34:28.130Z,99342.66
2019-05-21T03:35:32.362Z,99349.95
2019-05-21T03:36:37.107Z,99349.22
2019-05-21T03:37:41.303Z,99348.89
2019-05-21T03:38:46.078Z,99354.94
2019-05-21T03:39:50.212Z,99354.03
2019-05-21T03:40:55.011Z,99364.03
2019-05-21T03:41:59.211Z,99364.11
2019-05-21T03:43:03.946Z,99373.14
2019-05-21T03:44:09.161Z,99376.98
2019-05-21T03:45:13.896Z,99365.71
2019-05-21T03:46:18.136Z,99377.72
2019-05-21T03:47:22.963Z,99376.30
2019-05-21T03:48:27.184Z,99379.79
2019-05-21T03:49:32.183Z,99377.96
2019-05-21T03:50:36.406Z,99384.51
2019-05-21T03:51:41.097Z,99381.61
2019-05-21T03:52:45.296Z,99386.50
2019-05-21T03:53:50.025Z,99381.78
2019-05-21T03:54:54.202Z,99385.47
2019-05-21T03:55:59.202Z,99385.14
2019-05-21T03:57:04.061Z,99387.38
2019-05-21T03:58:08.883Z,99384.81
2019-05-21T03:59:13.058Z,99393.17
2019-05-21T04:00:18.984Z,99389.20
2019-05-21T04:01:23.262Z,99383.41
2019-05-21T04:02:28.063Z,99389.95
2019-05-21T04:03:32.259Z,99384.57
2019-05-21T04:04:37.055Z,99382.91
2019-05-21T04:05:41.302Z,99386.70
2019-05-21T04:06:52.093Z,99381.84
2019-05-21T04:07:52.058Z,99382.91
2019-05-21T04:08:56.811Z,99379.36
2019-05-21T04:10:01.041Z,99379.41
2019-05-21T04:11:05.719Z,99373.53
2019-05-21T04:12:10.398Z,99375.19
2019-05-21T04:13:15.154Z,99366.11
2019-05-21T04:14:36.950Z,99364.37
2019-05-21T04:15:46.569Z,99368.34
2019-05-21T04:16:52.502Z,99355.42
2019-05-21T04:17:58.309Z,99345.22
2019-05-21T04:19:04.195Z,99341.24
2019-05-21T04:20:08.764Z,99321.47
2019-05-21T04:21:13.491Z,99316.72
2019-05-21T04:22:17.760Z,99299.64
2019-05-21T04:23:25.984Z,99303.12
2019-05-21T04:24:30.154Z,99316.03
2019-05-21T04:25:34.932Z,99317.86
2019-05-21T04:26:39.121Z,99311.40
2019-05-21T04:27:44.017Z,99298.63
2019-05-21T04:28:48.284Z,99301.00
2019-05-21T04:29:53.018Z,99293.96
2019-05-21T04:30:57.187Z,99297.22
2019-05-21T04:32:02.250Z,99291.92
2019-05-21T04:33:06.522Z,99305.17
2019-05-21T04:34:12.331Z,99307.45
2019-05-21T04:35:16.564Z,99323.04
2019-05-21T04:36:21.301Z,99337.84
2019-05-21T04:37:25.672Z,99340.41
2019-05-21T04:38:30.505Z,99342.23
2019-05-21T04:39:34.752Z,99337.19
2019-05-21T04:40:39.965Z,99340.20
2019-05-21T04:41:44.148Z,99337.97
2019-05-21T04:42:49.082Z,99339.63
2019-05-21T04:43:53.199Z,99343.84
2019-05-21T04:44:59.029Z,99339.70
2019-05-21T04:46:04.214Z,99346.16
2019-05-21T04:47:08.938Z,99342.81
2019-05-21T04:48:13.179Z,99345.13
2019-05-21T04:49:18.074Z,99356.13
2019-05-21T04:50:22.362Z,99361.09
2019-05-21T04:51:27.510Z,99344.55
2019-05-21T04:52:31.774Z,99341.23
2019-05-21T04:53:36.507Z,99336.61
2019-05-21T04:54:41.012Z,99340.24
2019-05-21T04:55:45.750Z,99340.58
2019-05-21T04:56:50.038Z,99332.63
2019-05-21T04:57:55.162Z,99342.56
2019-05-21T04:58:59.329Z,99339.50
2019-05-21T05:00:05.782Z,99343.67
2019-05-21T05:01:10.064Z,99343.67
2019-05-21T05:02:14.796Z,99345.49
2019-05-21T05:03:19.078Z,99352.77
2019-05-21T05:04:23.792Z,99339.20
2019-05-21T05:05:28.033Z,99342.19
2019-05-21T05:06:32.767Z,99342.94
2019-05-21T05:07:37.163Z,99333.09
2019-05-21T05:08:41.956Z,99334.83
2019-05-21T05:09:46.319Z,99346.83
2019-05-21T05:10:51.035Z,99353.28
2019-05-21T05:11:55.209Z,99355.27
2019-05-21T05:13:00.067Z,99358.31
2019-05-21T05:14:04.466Z,99363.11
2019-05-21T05:15:09.364Z,99356.50
2019-05-21T05:16:13.551Z,99366.02
2019-05-21T05:17:18.388Z,99358.08
2019-05-21T05:18:22.615Z,99366.02
2019-05-21T05:19:27.501Z,99370.16
2019-05-21T05:20:31.665Z,99363.08
2019-05-21T05:21:36.397Z,99357.95
2019-05-21T05:22:40.761Z,99361.59
2019-05-21T05:23:45.482Z,99367.92
2019-05-21T05:24:49.722Z,99368.91
2019-05-21T05:25:54.637Z,99366.92
2019-05-21T05:26:58.807Z,99365.09
2019-05-21T05:28:03.954Z,99365.45
2019-05-21T05:29:08.313Z,99353.57
2019-05-21T05:30:13.428Z,99365.45
2019-05-21T05:31:17.601Z,99365.70
2019-05-21T05:32:22.338Z,99371.75
2019-05-21T05:33:27.557Z,99371.70
2019-05-21T05:34:32.286Z,99371.00
2019-05-21T05:35:36.481Z,99371.70
2019-05-21T05:36:41.335Z,99368.89
2019-05-21T05:37:48.725Z,99368.19
2019-05-21T05:38:51.993Z,99374.39
2019-05-21T05:39:56.431Z,99382.42
2019-05-21T05:41:01.148Z,99382.30
2019-05-21T05:42:05.356Z,99383.17
2019-05-21T05:43:10.137Z,99379.24
2019-05-21T05:44:14.428Z,99383.08
2019-05-21T05:45:20.318Z,99381.59
2019-05-21T05:46:24.543Z,99375.02
2019-05-21T05:47:29.455Z,99379.49
2019-05-21T05:48:35.261Z,99378.26
2019-05-21T05:49:49.574Z,99378.08
2019-05-21T05:50:59.212Z,99377.67
2019-05-21T05:52:04.070Z,99380.41
2019-05-21T05:53:08.631Z,99378.67
2019-05-21T05:54:13.415Z,99378.92
2019-05-21T05:55:17.577Z,99383.17
2019-05-21T05:56:24.097Z,99383.33
2019-05-21T05:57:28.331Z,99384.91
2019-05-21T05:58:33.055Z,99382.63
2019-05-21T05:59:37.227Z,99384.20
2019-05-21T06:00:42.006Z,99381.73
2019-05-21T06:01:46.520Z,99386.33
2019-05-21T06:02:51.416Z,99380.12
2019-05-21T06:03:55.755Z,99377.85
2019-05-21T06:05:00.509Z,99383.47
2019-05-21T06:06:04.944Z,99386.86
2019-05-21T06:07:09.695Z,99387.89
2019-05-21T06:08:15.397Z,99385.95
2019-05-21T06:09:20.291Z,99382.40
2019-05-21T06:10:24.480Z,99385.54
2019-05-21T06:11:29.213Z,99386.94
2019-05-21T06:12:33.426Z,99386.86
2019-05-21T06:13:38.149Z,99389.02
2019-05-21T06:14:42.487Z,99382.97
2019-05-21T06:15:47.277Z,99386.36
2019-05-21T06:16:51.437Z,99382.72
2019-05-21T06:17:56.225Z,99385.45
2019-05-21T06:19:00.395Z,99382.55
2019-05-21T06:20:07.203Z,99379.53
2019-05-21T06:21:11.370Z,99381.15
2019-05-21T06:22:16.193Z,99378.08
2019-05-21T06:23:20.362Z,99379.74
2019-05-21T06:24:26.247Z,99373.53
2019-05-21T06:25:30.442Z,99366.30
2019-05-21T06:26:35.242Z,99372.25
2019-05-21T06:27:39.450Z,99377.83
2019-05-21T06:28:44.164Z,99382.55
2019-05-21T06:29:48.509Z,99377.50
2019-05-21T06:30:53.108Z,99381.90
2019-05-21T06:31:57.456Z,99384.58
2019-05-21T06:33:02.096Z,99377.45
2019-05-21T06:34:06.938Z,99375.80
2019-05-21T06:35:11.572Z,99379.11
2019-05-21T06:36:16.124Z,99384.86
2019-05-21T06:37:20.658Z,99394.08
2019-05-21T06:38:25.202Z,99386.80
2019-05-21T06:39:29.844Z,99388.20
2019-05-21T06:40:34.195Z,99393.83
2019-05-21T06:41:38.787Z,99397.89
2019-05-21T06:42:43.243Z,99396.11
2019-05-21T06:43:47.828Z,99393.55
2019-05-21T06:44:52.201Z,99399.55
2019-05-21T06:45:56.806Z,99392.72
2019-05-21T06:47:01.171Z,99400.83
2019-05-21T06:48:06.827Z,99397.94
2019-05-21T06:49:11.235Z,99394.96
2019-05-21T06:50:16.191Z,99403.19
2019-05-21T06:51:21.729Z,99396.89
2019-05-21T06:52:26.328Z,99402.69
2019-05-21T06:53:31.044Z,99400.20
2019-05-21T06:54:35.565Z,99408.64
2019-05-21T06:55:41.149Z,99411.30
2019-05-21T06:56:45.724Z,99403.14
2019-05-21T06:57:50.073Z,99407.86
2019-05-21T06:58:54.728Z,99406.63
2019-05-21T06:59:59.330Z,99408.54
2019-05-21T07:01:04.789Z,99405.72
2019-05-21T07:02:09.265Z,99407.79
2019-05-21T07:03:13.943Z,99409.11
2019-05-21T07:04:18.343Z,99416.55
2019-05-21T07:05:22.945Z,99413.23
2019-05-21T07:06:27.356Z,99419.03
2019-05-21T07:07:32.051Z,99429.58
2019-05-21T07:08:36.484Z,99419.48
2019-05-21T07:09:41.015Z,99415.09
2019-05-21T07:10:45.444Z,99425.19
2019-05-21T07:11:50.039Z,99414.69
2019-05-21T07:12:54.427Z,99425.73
2019-05-21T07:14:00.073Z,99424.59
2019-05-21T07:15:06.290Z,99426.74
2019-05-21T07:16:10.827Z,99429.44
2019-05-21T07:17:15.179Z,99428.28
2019-05-21T07:18:19.779Z,99424.31
2019-05-21T07:19:24.305Z,99427.30
2019-05-21T07:20:28.916Z,99425.56
2019-05-21T07:21:33.339Z,99424.16
2019-05-21T07:22:37.911Z,99427.55
2019-05-21T07:23:42.391Z,99424.41
2019-05-21T07:24:47.024Z,99431.97
2019-05-21T07:25:51.380Z,99433.42
2019-05-21T07:26:56.956Z,99429.98
2019-05-21T07:28:01.497Z,99457.01
2019-05-21T07:29:06.222Z,99455.30
2019-05-21T07:30:10.716Z,99448.19
2019-05-21T07:31:17.597Z,99460.53
2019-05-21T07:32:21.303Z,99448.56
2019-05-21T07:33:25.882Z,99454.73
2019-05-21T07:34:30.312Z,99449.34
2019-05-21T07:35:34.841Z,99449.59
2019-05-21T07:36:39.335Z,99446.20
2019-05-21T07:37:43.891Z,99445.30
2019-05-21T07:38:53.329Z,99449.44
2019-05-21T07:39:54.773Z,99450.50
2019-05-21T07:40:59.144Z,99444.67
2019-05-21T07:42:03.689Z,99426.72
2019-05-21T07:43:08.109Z,99439.20
2019-05-21T07:44:12.727Z,99427.95
2019-05-21T07:45:17.075Z,99436.89
2019-05-21T07:46:21.616Z,99435.73
2019-05-21T07:47:25.974Z,99419.52
2019-05-21T07:48:30.543Z,99427.63
2019-05-21T07:49:34.919Z,99425.14
2019-05-21T07:50:39.562Z,99435.98
2019-05-21T07:51:44.323Z,99433.00
2019-05-21T07:52:48.964Z,99432.25
2019-05-21T07:53:54.607Z,99431.79
2019-05-21T07:54:59.128Z,99435.18
2019-05-21T07:56:03.551Z,99432.33
2019-05-21T07:57:08.125Z,99434.02
2019-05-21T07:58:12.655Z,99429.45
2019-05-21T07:59:17.391Z,99430.23
2019-05-21T08:00:21.744Z,99439.70
2019-05-21T08:01:26.420Z,99435.78
2019-05-21T08:02:30.775Z,99443.39
2019-05-21T08:03:35.313Z,99454.34
2019-05-21T08:04:39.816Z,99445.18
2019-05-21T08:05:44.355Z,99446.01
2019-05-21T08:06:48.783Z,99451.31
2019-05-21T08:07:53.360Z,99439.08
2019-05-21T08:09:12.407Z,99440.44
2019-05-21T08:10:06.715Z,99435.72
2019-05-21T08:11:11.263Z,99448.67
2019-05-21T08:12:36.844Z,99446.89
2019-05-21T08:13:22.156Z,99447.47
2019-05-21T08:14:26.694Z,99447.34
2019-05-21T08:15:31.180Z,99454.05
2019-05-21T08:16:35.823Z,99449.45
2019-05-21T08:17:40.184Z,99451.94
2019-05-21T08:18:44.723Z,99457.56
2019-05-21T08:19:49.432Z,99462.69
2019-05-21T08:20:54.065Z,99461.45
2019-05-21T08:21:58.493Z,99462.71
2019-05-21T08:23:03.034Z,99468.92
2019-05-21T08:24:07.385Z,99468.22
2019-05-21T08:25:14.776Z,99457.79
2019-05-21T08:26:18.301Z,99463.75
2019-05-21T08:27:22.855Z,99472.11
2019-05-21T08:28:27.204Z,99470.20
2019-05-21T08:29:31.804Z,99476.33
2019-05-21T08:30:36.165Z,99484.69
2019-05-21T08:31:40.971Z,99475.09
2019-05-21T08:32:45.394Z,99477.73
2019-05-21T08:33:49.935Z,99479.39
2019-05-21T08:34:54.357Z,99474.77
2019-05-21T08:35:58.895Z,99490.47
2019-05-21T08:37:03.693Z,99490.14
2019-05-21T08:38:08.295Z,99497.76
2019-05-21T08:39:27.374Z,99496.14
2019-05-21T08:40:18.879Z,99504.29
2019-05-21T08:41:23.267Z,99506.82
2019-05-21T08:42:27.947Z,99500.77
2019-05-21T08:43:32.415Z,99499.36
2019-05-21T08:44:36.893Z,99500.77
2019-05-21T08:45:41.251Z,99505.48
2019-05-21T08:46:45.822Z,99505.23
2019-05-21T08:47:50.174Z,99504.58
2019-05-21T08:48:54.755Z,99509.45
2019-05-21T08:49:59.111Z,99510.21
2019-05-21T08:51:03.722Z,99512.91
2019-05-21T08:52:08.117Z,99514.23
2019-05-21T08:53:12.665Z,99508.53
2019-05-21T08:54:18.442Z,99500.50
2019-05-21T08:55:23.058Z,99511.50
2019-05-21T08:56:27.407Z,99513.81
2019-05-21T08:57:31.970Z,99512.08
2019-05-21T08:58:36.393Z,99517.95
2019-05-21T08:59:41.014Z,99524.66
2019-05-21T09:00:45.354Z,99523.11
2019-05-21T09:01:49.883Z,99536.56
2019-05-21T09:02:54.236Z,99525.59
2019-05-21T09:03:58.804Z,99539.62
2019-05-21T09:05:03.158Z,99535.15
2019-05-21T09:06:07.700Z,99542.94
2019-05-21T09:07:12.119Z,99540.14
2019-05-21T09:08:16.696Z,99540.39
2019-05-21T09:09:21.042Z,99544.28
2019-05-21T09:10:25.535Z,99549.34
2019-05-21T09:11:29.907Z,99558.94
2019-05-21T09:12:34.496Z,99554.39
2019-05-21T09:13:38.916Z,99556.25
2019-05-21T09:14:43.447Z,99553.95
2019-05-21T09:15:47.920Z,99554.27
2019-05-21T09:16:52.456Z,99555.10
2019-05-21T09:17:56.811Z,99563.33
2019-05-21T09:19:01.423Z,99567.63
2019-05-21T09:20:09.602Z,99566.10
2019-05-21T09:21:14.260Z,99564.63
2019-05-21T09:22:19.581Z,99571.33
2019-05-21T09:23:24.165Z,99575.81
2019-05-21T09:24:29.491Z,99576.56
2019-05-21T09:25:34.028Z,99579.88
2019-05-21T09:26:38.627Z,99578.22
2019-05-21T09:27:43.213Z,99584.25
2019-05-21T09:28:48.534Z,99585.26
2019-05-21T09:29:53.073Z,99584.68
2019-05-21T09:31:01.585Z,99581.86
2019-05-21T09:32:05.163Z,99585.41
2019-05-21T09:33:09.518Z,99578.30
2019-05-21T09:34:14.089Z,99582.50
2019-05-21T09:35:18.521Z,99590.06
2019-05-21T09:36:25.246Z,99588.41
2019-05-21T09:37:29.209Z,99592.01
2019-05-21T09:38:33.788Z,99589.56
2019-05-21T09:39:38.144Z,99591.11
2019-05-21T09:40:42.713Z,99592.77
2019-05-21T09:41:47.134Z,99600.17
2019-05-21T09:42:51.719Z,99585.59
2019-05-21T09:43:56.060Z,99592.45
2019-05-21T09:45:00.752Z,99593.42
2019-05-21T09:46:05.137Z,99591.05
2019-05-21T09:47:09.684Z,99602.30
2019-05-21T09:48:14.067Z,99602.80
2019-05-21T09:49:18.726Z,99604.46
2019-05-21T09:50:23.187Z,99598.84
2019-05-21T09:51:27.753Z,99604.09
2019-05-21T09:52:32.110Z,99604.09
2019-05-21T09:53:36.934Z,99602.69
2019-05-21T09:54:41.348Z,99608.11
2019-05-21T09:55:45.938Z,99608.65
2019-05-21T09:56:50.357Z,99620.16
2019-05-21T09:58:05.039Z,99616.44
2019-05-21T09:59:17.077Z,99614.96
2019-05-21T10:00:34.404Z,99625.20
2019-05-21T10:01:47.496Z,99631.02
2019-05-21T10:02:49.472Z,99634.59
2019-05-21T10:03:58.903Z,99634.16
2019-05-21T10:05:03.624Z,99637.22
2019-05-21T10:06:08.343Z,99645.52
2019-05-21T10:07:12.711Z,99637.22
2019-05-21T10:08:17.503Z,99641.69
2019-05-21T10:09:21.971Z,99640.22
2019-05-21T10:10:26.948Z,99643.86
2019-05-21T10:11:31.165Z,99647.50
2019-05-21T10:12:36.874Z,99649.23
2019-05-21T10:13:41.039Z,99655.44
2019-05-21T10:14:45.767Z,99655.37
2019-05-21T10:15:50.026Z,99651.47
2019-05-21T10:16:54.831Z,99654.94
2019-05-21T10:17:59.055Z,99645.48
2019-05-21T10:19:03.818Z,99644.11
2019-05-21T10:20:08.051Z,99641.30
2019-05-21T10:21:12.773Z,99643.24
2019-05-21T10:22:17.015Z,99637.08
2019-05-21T10:23:21.910Z,99633.72
2019-05-21T10:24:26.085Z,99637.61
2019-05-21T10:25:30.858Z,99643.75
2019-05-21T10:26:35.340Z,99640.61
2019-05-21T10:27:41.105Z,99644.91
2019-05-21T10:28:45.362Z,99641.84
2019-05-21T10:29:50.080Z,99640.94
2019-05-21T10:30:54.271Z,99647.06
2019-05-21T10:31:59.140Z,99656.41
2019-05-21T10:33:03.420Z,99649.88
2019-05-21T10:34:08.141Z,99653.09
2019-05-21T10:35:12.462Z,99656.23
2019-05-21T10:36:17.487Z,99652.26
2019-05-21T10:37:21.907Z,99656.16
2019-05-21T10:38:26.804Z,99655.33
2019-05-21T10:39:31.113Z,99649.38
2019-05-21T10:40:35.831Z,99662.29
2019-05-21T10:41:40.004Z,99666.44
2019-05-21T10:42:44.821Z,99659.91
2019-05-21T10:43:48.968Z,99652.05
2019-05-21T10:44:53.705Z,99654.61
2019-05-21T10:45:57.868Z,99657.94
2019-05-21T10:47:02.667Z,99667.53
2019-05-21T10:48:06.993Z,99664.06
2019-05-21T10:49:11.789Z,99665.18
2019-05-21T10:50:15.978Z,99670.52
2019-05-21T10:51:20.721Z,99666.02
2019-05-21T10:52:25.336Z,99673.81
2019-05-21T10:53:30.327Z,99674.89
2019-05-21T10:54:34.483Z,99669.84
2019-05-21T10:55:39.206Z,99675.54
2019-05-21T10:56:48.090Z,99681.23
2019-05-21T10:57:50.045Z,99679.83
2019-05-21T10:58:54.397Z,99683.98
2019-05-21T10:59:59.122Z,99681.09
2019-05-21T11:01:04.951Z,99679.88
2019-05-21T11:02:13.640Z,99685.57
2019-05-21T11:03:19.479Z,99681.74
2019-05-21T11:04:25.462Z,99692.03
2019-05-21T11:05:37.055Z,99693.88
2019-05-21T11:06:43.289Z,99696.69
2019-05-21T11:07:47.463Z,99700.88
2019-05-21T11:08:52.183Z,99703.11
2019-05-21T11:09:56.641Z,99711.16
2019-05-21T11:11:01.414Z,99715.53
2019-05-21T11:12:06.953Z,99727.73
2019-05-21T11:13:11.700Z,99722.93
2019-05-21T11:14:15.863Z,99723.77
2019-05-21T11:15:20.810Z,99726.19
2019-05-21T11:16:25.058Z,99730.62
2019-05-21T11:17:29.658Z,99723.26
2019-05-21T11:18:33.811Z,99731.31
2019-05-21T11:19:39.428Z,99730.98
2019-05-21T11:20:43.660Z,99723.19
2019-05-21T11:21:48.410Z,99723.69
2019-05-21T11:22:52.619Z,99725.89
2019-05-21T11:23:58.468Z,99716.55
2019-05-21T11:25:02.667Z,99713.80
2019-05-21T11:26:07.431Z,99720.77
2019-05-21T11:27:11.640Z,99715.78
2019-05-21T11:28:16.437Z,99717.19
2019-05-21T11:29:20.613Z,99720.77
2019-05-21T11:30:25.624Z,99721.67
2019-05-21T11:31:29.806Z,99718.78
2019-05-21T11:32:34.564Z,99711.74
2019-05-21T11:33:38.829Z,99717.13
2019-05-21T11:34:43.553Z,99722.42
2019-05-21T11:35:47.895Z,99726.83
2019-05-21T11:36:52.723Z,99723.77
2019-05-21T11:37:57.014Z,99728.50
2019-05-21T11:39:01.738Z,99727.92
2019-05-21T11:40:08.495Z,99735.42
2019-05-21T11:41:12.715Z,99732.35
2019-05-21T11:42:16.875Z,99732.39
2019-05-21T11:43:21.728Z,99738.67
2019-05-21T11:44:25.948Z,99749.29
2019-05-21T11:45:32.779Z,99745.97
2019-05-21T11:46:37.736Z,99745.06
2019-05-21T11:47:42.533Z,99746.29
2019-05-21T11:48:46.698Z,99752.93
2019-05-21T11:49:52.387Z,99754.91
2019-05-21T11:50:56.576Z,99750.66
2019-05-21T11:52:01.438Z,99760.62
2019-05-21T11:53:05.722Z,99759.72
2019-05-21T11:54:10.410Z,99753.52
2019-05-21T11:55:14.585Z,99757.70
2019-05-21T11:56:20.287Z,99760.88
2019-05-21T11:57:24.449Z,99758.38
2019-05-21T11:58:30.244Z,99764.91
2019-05-21T11:59:34.399Z,99771.19
2019-05-21T12:00:39.333Z,99770.40
2019-05-21T12:01:43.495Z,99776.75
2019-05-21T12:02:48.217Z,99774.20
2019-05-21T12:03:52.532Z,99780.91
2019-05-21T12:04:57.243Z,99786.80
2019-05-21T12:06:01.674Z,99783.08
2019-05-21T12:07:06.423Z,99790.63
2019-05-21T12:08:10.735Z,99787.19
2019-05-21T12:09:15.251Z,99783.72
2019-05-21T12:10:19.417Z,99792.48
2019-05-21T12:11:26.041Z,99783.20
2019-05-21T12:12:30.143Z,99795.23
2019-05-21T12:13:34.917Z,99796.21
2019-05-21T12:14:39.032Z,99801.45
2019-05-21T12:15:43.759Z,99794.34
2019-05-21T12:16:47.958Z,99796.00
2019-05-21T12:17:52.783Z,99798.31
2019-05-21T12:18:56.956Z,99802.75
2019-05-21T12:20:01.671Z,99805.18
2019-05-21T12:21:05.864Z,99806.34
2019-05-21T12:22:10.697Z,99801.21
2019-05-21T12:23:14.867Z,99806.66
2019-05-21T12:24:19.577Z,99805.61
2019-05-21T12:25:23.838Z,99804.78
2019-05-21T12:26:28.588Z,99800.48
2019-05-21T12:27:33.840Z,99801.86
2019-05-21T12:28:38.842Z,99806.98
2019-05-21T12:29:43.015Z,99808.10
2019-05-21T12:30:47.804Z,99808.64
2019-05-21T12:31:52.104Z,99814.02
2019-05-21T12:32:56.832Z,99810.30
2019-05-21T12:34:01.101Z,99815.61
2019-05-21T12:35:06.695Z,99818.94
2019-05-21T12:36:10.930Z,99819.20
2019-05-21T12:37:15.769Z,99813.38
2019-05-21T12:38:19.935Z,99823.56
2019-05-21T12:39:24.933Z,99824.08
2019-05-21T12:40:29.097Z,99830.28
2019-05-21T12:41:33.872Z,99825.80
2019-05-21T12:42:38.061Z,99829.70
2019-05-21T12:43:42.782Z,99830.25
2019-05-21T12:44:47.071Z,99835.88
2019-05-21T12:45:51.796Z,99830.50